createdAt,value
2018-06-10T00:00:31.182Z,92.24
2018-06-10T00:01:31.177Z,92.52
2018-06-10T00:02:31.171Z,92.91
2018-06-10T00:03:31.171Z,92.91
2018-06-10T00:04:31.164Z,92.81
2018-06-10T00:05:31.161Z,93.01
2018-06-10T00:06:31.159Z,93.68
2018-06-10T00:07:31.153Z,92.96
2018-06-10T00:08:31.154Z,92.86
2018-06-10T00:09:31.146Z,92.77
2018-06-10T00:10:31.141Z,93.63
2018-06-10T00:11:31.138Z,92.77
2018-06-10T00:12:31.134Z,92.77
2018-06-10T00:13:31.134Z,92.91
2018-06-10T00:14:31.126Z,93.05
2018-06-10T00:15:31.123Z,92.52
2018-06-10T00:16:31.119Z,92.33
2018-06-10T00:17:31.119Z,92.24
2018-06-10T00:18:31.111Z,92.24
2018-06-10T00:19:31.110Z,92.72
2018-06-10T00:20:31.106Z,92.33
2018-06-10T00:21:31.100Z,92.81
2018-06-10T00:22:31.096Z,93.01
2018-06-10T00:23:31.093Z,93.49
2018-06-10T00:24:31.089Z,93.44
2018-06-10T00:25:31.084Z,93.44
2018-06-10T00:26:31.084Z,93.49
2018-06-10T00:27:31.081Z,93.44
2018-06-10T00:28:31.073Z,93.54
2018-06-10T00:29:31.072Z,93.44
2018-06-10T00:30:31.065Z,93.44
2018-06-10T00:31:31.060Z,93.44
2018-06-10T00:32:31.058Z,93.25
2018-06-10T00:33:31.057Z,93.63
2018-06-10T00:34:31.048Z,93.54
2018-06-10T00:35:31.049Z,93.44
2018-06-10T00:36:31.039Z,93.54
2018-06-10T00:37:31.036Z,94.40
2018-06-10T00:38:31.030Z,95.26
2018-06-10T00:39:31.026Z,94.88
2018-06-10T00:40:31.026Z,94.69
2018-06-10T00:41:31.019Z,95.26
2018-06-10T00:42:31.013Z,95.36
2018-06-10T00:43:31.012Z,95.21
2018-06-10T00:44:31.006Z,95.26
2018-06-10T00:45:31.003Z,94.83
2018-06-10T00:46:31.001Z,94.31
2018-06-10T00:47:30.995Z,93.63
2018-06-10T00:48:30.992Z,93.54
2018-06-10T00:49:30.985Z,93.82
2018-06-10T00:50:30.980Z,93.73
2018-06-10T00:51:30.975Z,93.44
2018-06-10T00:52:30.971Z,93.63
2018-06-10T00:53:30.967Z,93.54
2018-06-10T00:54:30.962Z,93.73
2018-06-10T00:55:30.958Z,93.63
2018-06-10T00:56:30.954Z,93.44
2018-06-10T00:57:30.952Z,93.05
2018-06-10T00:58:30.945Z,93.82
2018-06-10T00:59:30.940Z,93.92
2018-06-10T01:00:30.936Z,95.07
2018-06-10T01:01:30.932Z,95.31
2018-06-10T01:02:30.929Z,95.50
2018-06-10T01:03:30.923Z,95.21
2018-06-10T01:04:30.919Z,95.21
2018-06-10T01:05:30.921Z,95.70
2018-06-10T01:06:30.909Z,95.31
2018-06-10T01:07:30.906Z,95.89
2018-06-10T01:08:30.902Z,95.89
2018-06-10T01:09:30.899Z,95.79
2018-06-10T01:10:30.893Z,95.79
2018-06-10T01:11:30.889Z,95.98
2018-06-10T01:12:30.887Z,95.60
2018-06-10T01:13:30.881Z,96.08
2018-06-10T01:14:30.879Z,95.89
2018-06-10T01:15:30.872Z,95.98
2018-06-10T01:16:30.868Z,96.37
2018-06-10T01:17:30.864Z,96.56
2018-06-10T01:18:30.861Z,96.66
2018-06-10T01:19:30.854Z,96.37
2018-06-10T01:20:30.851Z,96.56
2018-06-10T01:21:30.851Z,97.04
2018-06-10T01:22:30.841Z,96.70
2018-06-10T01:23:30.840Z,96.80
2018-06-10T01:24:30.834Z,96.66
2018-06-10T01:25:30.830Z,97.09
2018-06-10T01:26:30.824Z,97.38
2018-06-10T01:27:30.820Z,97.19
2018-06-10T01:28:30.815Z,97.86
2018-06-10T01:29:30.812Z,97.66
2018-06-10T01:30:30.809Z,98.14
2018-06-10T01:31:30.803Z,97.76
2018-06-10T01:32:30.798Z,98.24
2018-06-10T01:33:30.794Z,97.95
2018-06-10T01:34:30.792Z,98.62
2018-06-10T01:35:30.786Z,98.43
2018-06-10T01:36:30.781Z,98.91
2018-06-10T01:37:30.780Z,98.82
2018-06-10T01:38:30.774Z,99.10
2018-06-10T01:39:30.768Z,99.77
2018-06-10T01:40:30.763Z,99.20
2018-06-10T01:41:30.762Z,99.96
2018-06-10T01:42:30.757Z,99.68
2018-06-10T01:43:30.750Z,99.99
2018-06-10T01:44:30.750Z,99.99
2018-06-10T01:45:30.741Z,99.87
2018-06-10T01:46:30.736Z,99.99
2018-06-10T01:47:30.731Z,99.77
2018-06-10T01:48:30.727Z,99.99
2018-06-10T01:49:30.723Z,99.87
2018-06-10T01:50:30.718Z,99.96
2018-06-10T01:51:30.717Z,99.87
2018-06-10T01:52:30.710Z,99.99
2018-06-10T01:53:30.705Z,99.99
2018-06-10T01:54:30.700Z,99.99
2018-06-10T01:55:30.696Z,99.99
2018-06-10T01:56:30.695Z,99.99
2018-06-10T01:57:30.687Z,99.99
2018-06-10T01:58:30.682Z,99.99
2018-06-10T01:59:30.678Z,99.99
2018-06-10T02:00:30.674Z,99.99
2018-06-10T02:01:30.675Z,99.99
2018-06-10T02:02:30.664Z,99.99
2018-06-10T02:03:30.659Z,99.99
2018-06-10T02:04:30.674Z,99.99
2018-06-10T02:05:30.651Z,99.99
2018-06-10T02:06:30.646Z,99.99
2018-06-10T02:07:30.641Z,99.99
2018-06-10T02:08:30.637Z,99.99
2018-06-10T02:09:30.633Z,99.99
2018-06-10T02:10:30.627Z,99.99
2018-06-10T02:11:30.625Z,99.99
2018-06-10T02:12:30.619Z,99.99
2018-06-10T02:13:30.614Z,99.99
2018-06-10T02:14:30.613Z,99.99
2018-06-10T02:15:30.606Z,99.99
2018-06-10T02:16:30.600Z,99.99
2018-06-10T02:17:30.596Z,99.99
2018-06-10T02:18:30.591Z,99.99
2018-06-10T02:19:30.586Z,99.99
2018-06-10T02:20:30.581Z,99.99
2018-06-10T02:21:30.779Z,99.99
2018-06-10T02:22:30.571Z,99.99
2018-06-10T02:23:30.567Z,99.99
2018-06-10T02:24:30.567Z,99.99
2018-06-10T02:25:30.559Z,99.99
2018-06-10T02:26:30.553Z,99.99
2018-06-10T02:27:30.548Z,99.99
2018-06-10T02:28:30.544Z,99.99
2018-06-10T02:29:30.540Z,99.99
2018-06-10T02:30:30.538Z,99.99
2018-06-10T02:31:30.540Z,99.99
2018-06-10T02:32:30.526Z,99.99
2018-06-10T02:33:30.521Z,99.99
2018-06-10T02:34:30.516Z,99.99
2018-06-10T02:35:30.511Z,99.99
2018-06-10T02:36:30.509Z,99.99
2018-06-10T02:37:30.503Z,99.99
2018-06-10T02:38:30.497Z,99.99
2018-06-10T02:39:30.492Z,99.99
2018-06-10T02:40:30.492Z,99.99
2018-06-10T02:41:30.491Z,99.99
2018-06-10T02:42:30.478Z,99.99
2018-06-10T02:43:30.480Z,99.99
2018-06-10T02:44:30.469Z,99.99
2018-06-10T02:45:30.466Z,99.99
2018-06-10T02:46:30.467Z,99.99
2018-06-10T02:47:30.455Z,99.99
2018-06-10T02:48:30.450Z,99.99
2018-06-10T02:49:30.446Z,99.99
2018-06-10T02:50:30.440Z,99.99
2018-06-10T02:51:30.441Z,99.99
2018-06-10T02:52:30.431Z,99.99
2018-06-10T02:53:30.431Z,99.99
2018-06-10T02:54:30.421Z,99.99
2018-06-10T02:55:30.416Z,99.99
2018-06-10T02:56:30.412Z,99.99
2018-06-10T02:57:30.407Z,99.99
2018-06-10T02:58:30.402Z,99.99
2018-06-10T02:59:30.398Z,99.99
2018-06-10T03:00:30.393Z,99.99
2018-06-10T03:01:30.389Z,99.99
2018-06-10T03:02:30.387Z,99.99
2018-06-10T03:03:30.436Z,99.99
2018-06-10T03:04:30.375Z,99.99
2018-06-10T03:05:30.373Z,99.99
2018-06-10T03:06:30.364Z,99.99
2018-06-10T03:07:30.360Z,99.99
2018-06-10T03:08:30.356Z,99.99
2018-06-10T03:09:30.350Z,99.99
2018-06-10T03:10:30.345Z,99.99
2018-06-10T03:11:30.345Z,99.99
2018-06-10T03:12:30.337Z,99.99
2018-06-10T03:13:30.330Z,99.99
2018-06-10T03:14:30.325Z,99.99
2018-06-10T03:15:30.323Z,99.99
2018-06-10T03:16:30.324Z,99.99
2018-06-10T03:17:30.312Z,99.99
2018-06-10T03:18:30.305Z,99.99
2018-06-10T03:19:30.301Z,99.99
2018-06-10T03:20:30.296Z,99.99
2018-06-10T03:21:30.293Z,99.99
2018-06-10T03:22:30.287Z,99.99
2018-06-10T03:23:30.283Z,99.99
2018-06-10T03:24:30.279Z,99.99
2018-06-10T03:25:30.272Z,99.99
2018-06-10T03:26:30.313Z,99.99
2018-06-10T03:27:30.262Z,99.99
2018-06-10T03:28:30.257Z,99.99
2018-06-10T03:29:30.253Z,99.99
2018-06-10T03:30:30.254Z,99.99
2018-06-10T03:31:30.243Z,99.99
2018-06-10T03:32:30.237Z,99.99
2018-06-10T03:33:30.237Z,99.99
2018-06-10T03:34:30.226Z,99.99
2018-06-10T03:35:30.221Z,99.99
2018-06-10T03:36:30.216Z,99.99
2018-06-10T03:37:30.214Z,99.99
2018-06-10T03:38:30.208Z,99.99
2018-06-10T03:39:30.204Z,99.99
2018-06-10T03:40:30.196Z,99.99
2018-06-10T03:41:30.192Z,99.99
2018-06-10T03:42:30.185Z,99.99
2018-06-10T03:43:30.184Z,99.99
2018-06-10T03:44:30.177Z,99.99
2018-06-10T03:45:30.173Z,99.99
2018-06-10T03:46:30.168Z,99.99
2018-06-10T03:47:30.160Z,99.99
2018-06-10T03:48:30.158Z,99.99
2018-06-10T03:49:30.152Z,99.99
2018-06-10T03:50:30.147Z,99.99
2018-06-10T03:51:30.138Z,99.99
2018-06-10T03:52:30.133Z,99.99
2018-06-10T03:53:30.128Z,99.99
2018-06-10T03:54:30.122Z,99.99
2018-06-10T03:55:30.117Z,99.99
2018-06-10T03:56:30.112Z,99.99
2018-06-10T03:57:30.111Z,99.99
2018-06-10T03:58:30.105Z,99.99
2018-06-10T03:59:30.101Z,99.99
2018-06-10T04:00:30.295Z,99.99
2018-06-10T04:01:30.290Z,99.99
2018-06-10T04:02:30.086Z,99.99
2018-06-10T04:03:30.080Z,99.99
2018-06-10T04:04:30.071Z,99.99
2018-06-10T04:05:30.071Z,99.99
2018-06-10T04:06:30.061Z,99.99
2018-06-10T04:07:30.058Z,99.99
2018-06-10T04:08:30.055Z,99.99
2018-06-10T04:09:30.052Z,99.99
2018-06-10T04:10:30.043Z,99.99
2018-06-10T04:11:30.041Z,99.99
2018-06-10T04:12:30.032Z,99.99
2018-06-10T04:13:30.030Z,99.99
2018-06-10T04:14:30.028Z,99.99
2018-06-10T04:15:30.017Z,99.99
2018-06-10T04:16:30.014Z,99.99
2018-06-10T04:17:30.009Z,99.99
2018-06-10T04:18:30.005Z,99.99
2018-06-10T04:19:29.997Z,99.99
2018-06-10T04:20:29.993Z,99.99
2018-06-10T04:21:29.992Z,99.99
2018-06-10T04:22:29.983Z,99.99
2018-06-10T04:23:29.978Z,99.99
2018-06-10T04:24:29.974Z,99.99
2018-06-10T04:25:29.975Z,99.99
2018-06-10T04:26:29.967Z,99.99
2018-06-10T04:27:29.963Z,99.99
2018-06-10T04:28:29.956Z,99.99
2018-06-10T04:29:29.955Z,99.99
2018-06-10T04:30:29.949Z,99.99
2018-06-10T04:31:29.944Z,99.99
2018-06-10T04:32:29.937Z,99.99
2018-06-10T04:33:29.937Z,99.99
2018-06-10T04:34:29.927Z,99.99
2018-06-10T04:35:29.923Z,99.99
2018-06-10T04:36:29.919Z,99.99
2018-06-10T04:37:30.117Z,99.99
2018-06-10T04:38:29.909Z,99.99
2018-06-10T04:39:29.905Z,99.99
2018-06-10T04:40:29.903Z,99.99
2018-06-10T04:41:29.906Z,99.99
2018-06-10T04:42:29.891Z,99.99
2018-06-10T04:43:29.890Z,99.99
2018-06-10T04:44:29.884Z,99.99
2018-06-10T04:45:29.878Z,99.99
2018-06-10T04:46:29.873Z,99.99
2018-06-10T04:47:29.872Z,99.99
2018-06-10T04:49:29.860Z,99.99
2018-06-10T04:50:29.855Z,99.99
2018-06-10T04:51:29.852Z,99.99
2018-06-10T04:52:29.848Z,99.99
2018-06-10T04:53:29.844Z,99.99
2018-06-10T04:54:29.842Z,99.99
2018-06-10T04:55:29.833Z,99.99
2018-06-10T04:56:29.832Z,99.99
2018-06-10T04:57:29.825Z,99.99
2018-06-10T04:58:29.820Z,99.99
2018-06-10T04:59:29.816Z,99.99
2018-06-10T05:00:29.820Z,99.99
2018-06-10T05:01:29.811Z,99.99
2018-06-10T05:02:29.803Z,99.99
2018-06-10T05:03:29.799Z,99.99
2018-06-10T05:04:29.795Z,99.99
2018-06-10T05:05:29.796Z,99.99
2018-06-10T05:06:29.786Z,99.99
2018-06-10T05:07:29.786Z,99.99
2018-06-10T05:08:29.784Z,99.99
2018-06-10T05:09:29.781Z,99.99
2018-06-10T05:10:29.770Z,99.99
2018-06-10T05:11:29.767Z,99.99
2018-06-10T05:12:29.965Z,99.99
2018-06-10T05:13:29.759Z,99.99
2018-06-10T05:14:29.757Z,99.99
2018-06-10T05:15:29.757Z,99.99
2018-06-10T05:16:29.747Z,99.99
2018-06-10T05:17:29.744Z,99.99
2018-06-10T05:18:29.742Z,99.99
2018-06-10T05:19:29.739Z,99.99
2018-06-10T05:20:29.738Z,99.99
2018-06-10T05:21:29.732Z,99.99
2018-06-10T05:22:29.726Z,99.99
2018-06-10T05:23:29.721Z,99.99
2018-06-10T05:24:29.723Z,99.99
2018-06-10T05:25:29.715Z,99.99
2018-06-10T05:26:29.913Z,99.99
2018-06-10T05:27:29.709Z,99.99
2018-06-10T05:29:29.702Z,99.01
2018-06-10T05:30:29.699Z,97.86
2018-06-10T05:31:29.695Z,99.11
2018-06-10T05:32:29.697Z,98.72
2018-06-10T05:33:29.691Z,98.58
2018-06-10T05:34:29.684Z,98.53
2018-06-10T05:35:29.687Z,98.63
2018-06-10T05:36:29.678Z,98.53
2018-06-10T05:37:29.678Z,98.53
2018-06-10T05:38:29.679Z,97.19
2018-06-10T05:39:29.670Z,97.76
2018-06-10T05:40:29.666Z,98.14
2018-06-10T05:41:29.666Z,97.47
2018-06-10T05:42:29.659Z,97.47
2018-06-10T05:43:29.657Z,96.99
2018-06-10T05:44:29.653Z,97.57
2018-06-10T05:45:29.651Z,97.19
2018-06-10T05:46:29.690Z,97.96
2018-06-10T05:47:29.644Z,97.67
2018-06-10T05:48:29.643Z,98.34
2018-06-10T05:49:29.639Z,97.67
2018-06-10T05:50:29.638Z,96.99
2018-06-10T05:51:29.635Z,97.19
2018-06-10T05:52:29.629Z,96.99
2018-06-10T05:54:29.622Z,97.09
2018-06-10T05:55:29.619Z,97.09
2018-06-10T05:56:29.620Z,97.28
2018-06-10T05:57:29.615Z,97.09
2018-06-10T05:58:29.610Z,97.57
2018-06-10T05:59:29.608Z,98.00
2018-06-10T06:00:29.609Z,97.71
2018-06-10T06:01:29.602Z,98.00
2018-06-10T06:02:29.597Z,97.76
2018-06-10T06:03:29.601Z,97.47
2018-06-10T06:04:29.593Z,96.80
2018-06-10T06:05:29.590Z,96.13
2018-06-10T06:06:29.596Z,95.94
2018-06-10T06:07:29.587Z,96.13
2018-06-10T06:08:29.579Z,96.03
2018-06-10T06:09:29.577Z,95.36
2018-06-10T06:10:29.577Z,95.26
2018-06-10T06:11:29.570Z,95.45
2018-06-10T06:12:29.567Z,94.35
2018-06-10T06:13:29.568Z,95.36
2018-06-10T06:14:29.561Z,95.07
2018-06-10T06:15:29.559Z,95.79
2018-06-10T06:16:29.557Z,95.31
2018-06-10T06:17:29.554Z,93.96
2018-06-10T06:18:29.551Z,93.77
2018-06-10T06:19:29.549Z,93.77
2018-06-10T06:20:29.552Z,93.10
2018-06-10T06:21:29.556Z,93.05
2018-06-10T06:22:29.542Z,93.24
2018-06-10T06:23:29.540Z,92.08
2018-06-10T06:24:29.538Z,92.85
2018-06-10T06:25:29.537Z,93.05
2018-06-10T06:26:29.534Z,92.57
2018-06-10T06:27:29.577Z,91.51
2018-06-10T06:28:29.533Z,92.18
2018-06-10T06:29:29.531Z,91.41
2018-06-10T06:30:29.529Z,91.17
2018-06-10T06:31:29.528Z,90.97
2018-06-10T06:32:29.527Z,90.40
2018-06-10T06:33:29.531Z,90.30
2018-06-10T06:34:29.522Z,91.17
2018-06-10T06:35:29.521Z,90.69
2018-06-10T06:36:29.519Z,90.40
2018-06-10T06:37:29.518Z,90.11
2018-06-10T06:38:29.520Z,89.43
2018-06-10T06:39:29.561Z,90.11
2018-06-10T06:40:29.515Z,89.24
2018-06-10T06:41:29.513Z,89.15
2018-06-10T06:42:29.513Z,89.82
2018-06-10T06:43:29.515Z,90.11
2018-06-10T06:44:29.510Z,89.63
2018-06-10T06:45:29.509Z,89.63
2018-06-10T06:46:29.510Z,90.25
2018-06-10T06:47:29.507Z,90.34
2018-06-10T06:48:29.506Z,89.77
2018-06-10T06:49:29.505Z,88.61
2018-06-10T06:50:29.503Z,88.90
2018-06-10T06:51:29.705Z,87.94
2018-06-10T06:52:29.558Z,88.32
2018-06-10T06:53:29.503Z,88.85
2018-06-10T06:54:29.500Z,89.05
2018-06-10T06:55:29.500Z,89.15
2018-06-10T06:56:29.499Z,90.06
2018-06-10T06:57:29.498Z,89.96
2018-06-10T06:58:29.497Z,89.09
2018-06-10T06:59:29.497Z,89.19
2018-06-10T07:00:29.501Z,88.27
2018-06-10T07:01:29.497Z,87.74
2018-06-10T07:02:29.495Z,88.51
2018-06-10T07:03:29.495Z,88.81
2018-06-10T07:04:29.494Z,88.71
2018-06-10T07:05:29.499Z,88.32
2018-06-10T07:06:29.495Z,88.46
2018-06-10T07:07:29.493Z,88.04
2018-06-10T07:08:29.492Z,89.19
2018-06-10T07:09:29.496Z,88.81
2018-06-10T07:10:29.491Z,88.71
2018-06-10T07:11:29.490Z,88.90
2018-06-10T07:12:29.489Z,88.51
2018-06-10T07:13:29.489Z,89.29
2018-06-10T07:14:29.488Z,88.51
2018-06-10T07:15:29.487Z,89.24
2018-06-10T07:16:29.486Z,89.43
2018-06-10T07:17:29.486Z,90.06
2018-06-10T07:18:29.484Z,90.73
2018-06-10T07:19:29.485Z,89.77
2018-06-10T07:20:29.483Z,89.29
2018-06-10T07:21:29.485Z,89.19
2018-06-10T07:22:29.481Z,89.09
2018-06-10T07:23:29.692Z,89.39
2018-06-10T07:24:29.482Z,89.19
2018-06-10T07:25:29.478Z,88.90
2018-06-10T07:26:29.480Z,88.81
2018-06-10T07:27:29.476Z,88.90
2018-06-10T07:28:29.476Z,88.42
2018-06-10T07:29:29.477Z,88.32
2018-06-10T07:30:29.478Z,88.71
2018-06-10T07:31:29.472Z,89.00
2018-06-10T07:32:29.475Z,89.63
2018-06-10T07:33:29.531Z,90.01
2018-06-10T07:34:29.472Z,89.67
2018-06-10T07:35:29.468Z,89.15
2018-06-10T07:36:29.468Z,89.43
2018-06-10T07:37:29.467Z,90.40
2018-06-10T07:38:29.466Z,90.30
2018-06-10T07:39:29.464Z,90.97
2018-06-10T07:40:29.681Z,90.93
2018-06-10T07:41:29.664Z,91.41
2018-06-10T07:42:29.464Z,91.60
2018-06-10T07:43:29.458Z,91.80
2018-06-10T07:44:29.456Z,91.99
2018-06-10T07:45:29.456Z,91.80
2018-06-10T07:46:29.455Z,92.57
2018-06-10T07:47:29.454Z,91.51
2018-06-10T07:48:29.526Z,91.89
2018-06-10T07:49:29.450Z,91.75
2018-06-10T07:50:29.445Z,91.07
2018-06-10T07:51:29.450Z,91.27
2018-06-10T07:52:29.449Z,91.17
2018-06-10T07:53:29.441Z,90.34
2018-06-10T07:54:29.443Z,89.53
2018-06-10T07:55:29.439Z,90.01
2018-06-10T07:56:29.436Z,90.88
2018-06-10T07:57:29.438Z,91.17
2018-06-10T07:58:29.432Z,90.88
2018-06-10T07:59:29.432Z,91.07
2018-06-10T08:00:29.434Z,91.07
2018-06-10T08:01:29.427Z,90.97
2018-06-10T08:02:29.425Z,91.65
2018-06-10T08:03:29.427Z,91.55
2018-06-10T08:04:29.424Z,91.84
2018-06-10T08:05:29.502Z,91.75
2018-06-10T08:06:29.416Z,91.65
2018-06-10T08:07:29.415Z,91.84
2018-06-10T08:08:29.412Z,91.75
2018-06-10T08:09:29.414Z,92.22
2018-06-10T08:10:29.411Z,92.71
2018-06-10T08:11:29.415Z,91.55
2018-06-10T08:12:29.406Z,91.27
2018-06-10T08:13:29.404Z,90.69
2018-06-10T08:14:29.401Z,90.97
2018-06-10T08:15:29.602Z,91.79
2018-06-10T08:16:29.398Z,91.12
2018-06-10T08:17:29.397Z,91.41
2018-06-10T08:18:29.401Z,90.54
2018-06-10T08:19:29.393Z,90.34
2018-06-10T08:20:29.397Z,90.44
2018-06-10T08:21:29.391Z,89.91
2018-06-10T08:22:29.388Z,90.00
2018-06-10T08:23:29.387Z,90.39
2018-06-10T08:24:29.386Z,90.00
2018-06-10T08:25:29.385Z,89.81
2018-06-10T08:26:29.408Z,89.23
2018-06-10T08:27:29.382Z,89.33
2018-06-10T08:28:29.382Z,89.29
2018-06-10T08:29:29.379Z,89.77
2018-06-10T08:30:29.379Z,89.48
2018-06-10T08:31:29.381Z,89.58
2018-06-10T08:32:29.376Z,90.44
2018-06-10T08:33:29.373Z,90.54
2018-06-10T08:34:29.377Z,91.02
2018-06-10T08:35:29.374Z,90.92
2018-06-10T08:36:29.369Z,90.54
2018-06-10T08:37:29.388Z,89.86
2018-06-10T08:38:29.366Z,90.06
2018-06-10T08:39:29.365Z,90.10
2018-06-10T08:40:29.367Z,89.96
2018-06-10T08:41:29.568Z,88.81
2018-06-10T08:42:29.361Z,89.09
2018-06-10T08:43:29.359Z,89.29
2018-06-10T08:44:29.358Z,89.91
2018-06-10T08:45:29.357Z,89.62
2018-06-10T08:46:29.356Z,88.71
2018-06-10T08:47:29.354Z,90.34
2018-06-10T08:48:29.353Z,89.67
2018-06-10T08:49:29.354Z,89.72
2018-06-10T08:50:29.607Z,88.37
2018-06-10T08:51:29.350Z,88.17
2018-06-10T08:52:29.353Z,88.17
2018-06-10T08:53:29.349Z,88.08
2018-06-10T08:54:29.348Z,88.37
2018-06-10T08:55:29.352Z,88.17
2018-06-10T08:56:29.352Z,88.37
2018-06-10T08:57:29.348Z,87.88
2018-06-10T08:58:29.357Z,87.74
2018-06-10T08:59:29.344Z,87.54
2018-06-10T09:00:29.344Z,87.50
2018-06-10T09:01:29.347Z,88.17
2018-06-10T09:02:29.342Z,88.08
2018-06-10T09:03:29.341Z,88.31
2018-06-10T09:04:29.342Z,87.06
2018-06-10T09:05:29.341Z,86.87
2018-06-10T09:06:29.340Z,86.87
2018-06-10T09:07:29.340Z,87.74
2018-06-10T09:08:29.399Z,87.45
2018-06-10T09:09:29.341Z,87.83
2018-06-10T09:10:29.339Z,87.10
2018-06-10T09:11:29.340Z,86.62
2018-06-10T09:12:29.340Z,86.24
2018-06-10T09:13:29.341Z,85.37
2018-06-10T09:14:29.341Z,85.80
2018-06-10T09:15:29.346Z,85.70
2018-06-10T09:16:29.343Z,85.22
2018-06-10T09:17:29.348Z,84.74
2018-06-10T09:18:29.348Z,84.64
2018-06-10T09:19:29.346Z,85.31
2018-06-10T09:20:29.351Z,86.08
2018-06-10T09:21:29.347Z,84.98
2018-06-10T09:22:29.351Z,84.98
2018-06-10T09:23:29.349Z,85.17
2018-06-10T09:24:29.350Z,84.59
2018-06-10T09:25:29.352Z,86.14
2018-06-10T09:26:29.351Z,86.62
2018-06-10T09:27:29.352Z,85.46
2018-06-10T09:28:29.354Z,85.66
2018-06-10T09:29:29.358Z,85.46
2018-06-10T09:30:29.359Z,85.37
2018-06-10T09:31:29.357Z,84.83
2018-06-10T09:32:29.357Z,84.69
2018-06-10T09:33:29.360Z,85.85
2018-06-10T09:34:29.359Z,85.46
2018-06-10T09:35:29.406Z,86.04
2018-06-10T09:36:29.364Z,86.14
2018-06-10T09:37:29.363Z,85.66
2018-06-10T09:38:29.363Z,86.04
2018-06-10T09:39:29.366Z,86.28
2018-06-10T09:40:29.364Z,85.37
2018-06-10T09:41:29.368Z,85.46
2018-06-10T09:42:29.369Z,85.37
2018-06-10T09:43:29.366Z,85.27
2018-06-10T09:44:29.369Z,86.24
2018-06-10T09:45:29.368Z,86.62
2018-06-10T09:46:29.368Z,86.62
2018-06-10T09:47:29.370Z,86.52
2018-06-10T09:48:29.376Z,87.01
2018-06-10T09:49:29.370Z,85.75
2018-06-10T09:50:29.373Z,85.75
2018-06-10T09:51:29.370Z,85.75
2018-06-10T09:52:29.374Z,86.43
2018-06-10T09:53:29.372Z,86.04
2018-06-10T09:54:29.374Z,85.94
2018-06-10T09:55:29.666Z,86.24
2018-06-10T09:56:29.374Z,86.24
2018-06-10T09:57:29.374Z,85.37
2018-06-10T09:58:29.376Z,86.10
2018-06-10T09:59:29.373Z,86.39
2018-06-10T10:00:29.376Z,86.96
2018-06-10T10:01:29.375Z,86.33
2018-06-10T10:02:29.374Z,86.43
2018-06-10T10:03:29.376Z,86.52
2018-06-10T10:04:29.375Z,85.94
2018-06-10T10:05:29.378Z,85.75
2018-06-10T10:06:29.375Z,85.75
2018-06-10T10:07:29.375Z,86.14
2018-06-10T10:08:29.375Z,86.43
2018-06-10T10:09:29.376Z,85.91
2018-06-10T10:10:29.374Z,85.13
2018-06-10T10:11:29.374Z,85.71
2018-06-10T10:12:29.377Z,85.33
2018-06-10T10:13:29.377Z,86.58
2018-06-10T10:14:29.419Z,86.24
2018-06-10T10:15:29.375Z,85.37
2018-06-10T10:16:29.380Z,85.56
2018-06-10T10:17:29.376Z,87.10
2018-06-10T10:18:29.374Z,86.52
2018-06-10T10:19:29.374Z,86.62
2018-06-10T10:20:29.380Z,86.24
2018-06-10T10:21:29.380Z,85.75
2018-06-10T10:22:29.374Z,85.56
2018-06-10T10:23:29.374Z,85.46
2018-06-10T10:24:29.377Z,85.56
2018-06-10T10:25:29.431Z,84.79
2018-06-10T10:26:29.581Z,85.56
2018-06-10T10:27:29.378Z,85.37
2018-06-10T10:28:29.374Z,85.56
2018-06-10T10:29:29.375Z,85.33
2018-06-10T10:30:29.373Z,86.52
2018-06-10T10:31:29.582Z,85.85
2018-06-10T10:32:29.376Z,86.18
2018-06-10T10:33:29.375Z,85.27
2018-06-10T10:34:29.374Z,86.04
2018-06-10T10:35:29.375Z,86.04
2018-06-10T10:36:29.375Z,85.80
2018-06-10T10:37:29.376Z,84.93
2018-06-10T10:38:29.394Z,84.98
2018-06-10T10:39:29.375Z,85.17
2018-06-10T10:40:29.375Z,85.75
2018-06-10T10:41:29.380Z,85.27
2018-06-10T10:42:29.377Z,85.17
2018-06-10T10:43:29.380Z,85.56
2018-06-10T10:44:29.376Z,85.23
2018-06-10T10:45:29.376Z,86.48
2018-06-10T10:46:29.377Z,86.77
2018-06-10T10:47:29.376Z,86.77
2018-06-10T10:48:29.377Z,87.06
2018-06-10T10:49:29.374Z,86.48
2018-06-10T10:50:29.374Z,86.87
2018-06-10T10:51:29.374Z,86.77
2018-06-10T10:52:29.380Z,86.87
2018-06-10T10:53:29.373Z,86.29
2018-06-10T10:54:29.376Z,86.48
2018-06-10T10:55:29.373Z,86.87
2018-06-10T10:56:29.372Z,86.48
2018-06-10T10:57:29.375Z,86.19
2018-06-10T10:58:29.370Z,86.77
2018-06-10T10:59:29.376Z,87.83
2018-06-10T11:00:29.371Z,86.96
2018-06-10T11:01:29.370Z,86.96
2018-06-10T11:02:29.370Z,86.96
2018-06-10T11:03:29.367Z,86.77
2018-06-10T11:04:29.368Z,86.96
2018-06-10T11:05:29.367Z,86.19
2018-06-10T11:06:29.366Z,87.26
2018-06-10T11:07:29.370Z,87.16
2018-06-10T11:08:29.366Z,87.06
2018-06-10T11:09:29.364Z,87.83
2018-06-10T11:10:29.363Z,87.06
2018-06-10T11:11:29.369Z,87.06
2018-06-10T11:12:29.365Z,87.54
2018-06-10T11:13:29.362Z,86.68
2018-06-10T11:14:29.364Z,87.06
2018-06-10T11:15:29.365Z,86.96
2018-06-10T11:16:29.359Z,86.39
2018-06-10T11:17:29.359Z,86.48
2018-06-10T11:18:29.365Z,86.39
2018-06-10T11:19:29.357Z,87.06
2018-06-10T11:20:29.361Z,86.77
2018-06-10T11:21:29.357Z,86.10
2018-06-10T11:22:29.356Z,86.58
2018-06-10T11:23:29.358Z,86.43
2018-06-10T11:24:29.356Z,86.29
2018-06-10T11:25:29.358Z,86.87
2018-06-10T11:26:29.355Z,87.10
2018-06-10T11:27:29.355Z,85.61
2018-06-10T11:28:29.363Z,86.10
2018-06-10T11:29:29.354Z,86.58
2018-06-10T11:30:29.353Z,86.52
2018-06-10T11:31:29.353Z,86.29
2018-06-10T11:32:29.555Z,86.19
2018-06-10T11:33:29.352Z,86.00
2018-06-10T11:34:29.387Z,86.00
2018-06-10T11:35:29.351Z,86.96
2018-06-10T11:36:29.351Z,86.96
2018-06-10T11:37:29.351Z,87.06
2018-06-10T11:38:29.353Z,87.16
2018-06-10T11:39:29.353Z,87.16
2018-06-10T11:40:29.349Z,87.02
2018-06-10T11:41:29.350Z,86.92
2018-06-10T11:42:29.530Z,87.98
2018-06-10T11:43:29.361Z,87.40
2018-06-10T11:44:29.349Z,87.16
2018-06-10T11:45:29.548Z,87.26
2018-06-10T11:46:29.344Z,86.96
2018-06-10T11:47:29.344Z,86.48
2018-06-10T11:48:29.343Z,86.58
2018-06-10T11:49:29.342Z,86.58
2018-06-10T11:50:29.546Z,86.10
2018-06-10T11:51:29.341Z,86.19
2018-06-10T11:52:29.341Z,86.77
2018-06-10T11:53:29.340Z,86.48
2018-06-10T11:54:29.339Z,85.81
2018-06-10T11:55:29.340Z,86.58
2018-06-10T11:56:29.338Z,86.58
2018-06-10T11:57:29.338Z,86.10
2018-06-10T11:58:29.337Z,85.42
2018-06-10T11:59:29.336Z,85.33
2018-06-10T12:00:29.339Z,85.23
2018-06-10T12:01:29.336Z,86.00
2018-06-10T12:02:29.336Z,84.84
2018-06-10T12:03:29.340Z,85.75
2018-06-10T12:04:29.336Z,83.98
2018-06-10T12:05:29.337Z,85.33
2018-06-10T12:06:29.333Z,86.48
2018-06-10T12:07:29.540Z,84.69
2018-06-10T12:08:29.335Z,85.71
2018-06-10T12:09:29.333Z,84.41
2018-06-10T12:10:29.370Z,85.23
2018-06-10T12:11:29.534Z,84.27
2018-06-10T12:12:29.332Z,85.56
2018-06-10T12:13:29.335Z,85.85
2018-06-10T12:14:29.336Z,86.04
2018-06-10T12:15:29.336Z,84.11
2018-06-10T12:16:29.334Z,85.37
2018-06-10T12:17:29.337Z,85.08
2018-06-10T12:18:29.338Z,86.04
2018-06-10T12:19:29.331Z,87.01
2018-06-10T12:20:29.332Z,87.20
2018-06-10T12:21:29.332Z,86.86
2018-06-10T12:22:29.360Z,87.63
2018-06-10T12:23:29.333Z,85.99
2018-06-10T12:24:29.333Z,86.86
2018-06-10T12:25:29.335Z,87.05
2018-06-10T12:26:29.336Z,87.20
2018-06-10T12:27:29.335Z,87.53
2018-06-10T12:28:29.333Z,87.15
2018-06-10T12:29:29.336Z,86.76
2018-06-10T12:30:29.335Z,85.70
2018-06-10T12:31:29.336Z,85.46
2018-06-10T12:32:29.340Z,85.85
2018-06-10T12:34:29.335Z,85.70
2018-06-10T12:35:29.335Z,84.74
2018-06-10T12:36:29.336Z,84.83
2018-06-10T12:37:29.337Z,85.45
2018-06-10T12:38:29.340Z,84.58
2018-06-10T12:39:29.338Z,83.72
2018-06-10T12:40:29.339Z,85.45
2018-06-10T12:41:29.369Z,83.62
2018-06-10T12:42:29.340Z,83.52
2018-06-10T12:43:29.346Z,84.68
2018-06-10T12:44:29.547Z,83.62
2018-06-10T12:45:29.347Z,83.52
2018-06-10T12:46:29.345Z,83.62
2018-06-10T12:47:29.345Z,83.66
2018-06-10T12:48:29.346Z,82.98
2018-06-10T12:49:29.354Z,84.53
2018-06-10T12:50:29.349Z,82.31
2018-06-10T12:51:29.350Z,81.49
2018-06-10T12:52:29.351Z,83.04
2018-06-10T12:53:29.354Z,83.37
2018-06-10T12:54:29.354Z,82.79
2018-06-10T12:55:29.356Z,82.31
2018-06-10T12:56:29.358Z,82.35